Friday, October 19, 2018, 11:11 AM GMT
Back to Local

CYQB, Quebec, Que

Location: , , Canada Lat: 46.8
Local Time: 11:11 AM GMT (11:11 GMT) Lon: -71.383
Time Zone: GMT Elev: 229 ft

Show me the last for .
Show Decoded

2018-10-19 10:34 METAR CYQB 191034Z 06005KT 15SM -SN FEW003 FEW005 OVC035 M02/M02 A3004 RMK
                 SF1SF1SC7 SF TR PRESFR SLP177 =
2018-10-19 10:00 METAR CYQB 191000Z 07003KT 5SM -SN FEW005 BKN015 OVC040 M02/M02 A3005 RMK
                 SF1SC4SC3 SLP182 =
2018-10-19 09:48 METAR CYQB 190948Z 07004KT 5SM -SN FEW005 SCT015 OVC040 M02/M02 A3005 RMK
                 SF1SC4SC4 SF TR SLP182 =
2018-10-19 09:00 METAR CYQB 190900Z 02002KT 5SM -SN SCT015 BKN041 OVC080 M02/M03 A3007 RMK
                 SC3SC4AC1 /S01/ SLP187 =
2018-10-19 08:09 METAR CYQB 190809Z 00000KT 4SM -SN SCT014 OVC046 M02/M03 A3008 RMK SC4SC4 SLP190
                 =
2018-10-19 08:00 METAR CYQB 190800Z 00000KT 8SM -SN BKN014 BKN022 OVC047 M02/M03 A3008 RMK
                 SC5SC1SC2 SLP191 =
2018-10-19 07:30 METAR CYQB 190730Z 21002KT 7SM -SN BKN012 OVC045 M02/M03 A3009 RMK SC6SC2 SLP194
                 =
2018-10-19 07:14 METAR CYQB 190714Z 19002KT 4SM -SN OVC045 M02/M04 A3009 RMK SC8 SLP194 =
2018-10-19 07:00 METAR CYQB 190700Z 20003KT 2 1/4SM -SN OVC040 M02/M04 A3010 RMK SN2SC6 SLP197 =
2018-10-19 06:00 METAR CYQB 190600Z 27002KT 10SM -SN OVC047 M01/M06 A3011 RMK SC8 SLP201 =
2018-10-19 05:29 METAR CYQB 190529Z 27004KT 13SM -SN OVC053 M01/M06 A3012 RMK SC8 SLP203 =
2018-10-19 05:00 METAR CYQB 190500Z 25007KT 15SM FEW057 BKN083 BKN200 M02/M07 A3012 RMK SC1AC5CI1
                 SLP206 =
2018-10-19 04:00 METAR CYQB 190400Z 25007KT 15SM BKN068 OVC150 M02/M07 A3013 RMK AC5AC3 SLP210 =
2018-10-19 03:00 METAR CYQB 190300Z 26005KT 15SM FEW070 BKN097 BKN130 M02/M08 A3015 RMK AC2AC3AC1
                 SLP215 =
2018-10-19 02:00 METAR CYQB 190200Z 26006KT 15SM FEW090 SCT140 BKN190 M01/M08 A3015 RMK AC1AC3AS3
                 SLP213 =
2018-10-19 01:00 METAR CYQB 190100Z 26006KT 15SM SCT060 BKN120 BKN240 M02/M08 A3015 RMK SC3AC2CI1
                 SLP214 =
2018-10-19 00:00 METAR CYQB 190000Z 27006KT 15SM SCT070 BKN140 M01/M09 A3015 RMK AC3AC2 SLP216 =
2018-10-18 23:00 METAR CYQB 182300Z 26008KT 15SM SCT068 SCT130 SCT240 00/M09 A3015 RMK AC3AC1CI1
                 CI TR SLP214 =
2018-10-18 22:00 METAR CYQB 182200Z 28008G16KT 250V340 15SM SCT070 BKN240 01/M10 A3013 RMK AC4CI1
                 SLP207 =
2018-10-18 21:08 METAR CYQB 182108Z 27014G21KT 30SM SCT065 SCT240 02/M10 A3011 RMK SC4CI1 CI TR
                 FEW SH N-E SLP201 =
2018-10-18 21:00 METAR CYQB 182100Z 28008G16KT 30SM SCT065 SCT240 03/M10 A3010 RMK SC4CI1 CI TR
                 FEW SH N-E SLP199 =
2018-10-18 20:03 METAR CYQB 182003Z 27017G24KT 30SM VCSH SCT065 BKN240 02/M11 A3009 RMK SC4CI1
                 SLP195 =
2018-10-18 20:00 METAR CYQB 182000Z 27017G24KT 30SM VCSH SCT065 BKN240 03/M11 A3009 RMK SC4CI1
                 SLP195 =
2018-10-18 19:00 METAR CYQB 181900Z 27013G23KT 30SM VCSH BKN065 04/M10 A3008 RMK SC5 SLP192 =
2018-10-18 18:36 METAR CYQB 181836Z 27017G26KT 20SM VCSH BKN065 03/M10 A3008 RMK SC5 VIS LWR NE
                 SLP191 =
2018-10-18 18:00 METAR CYQB 181800Z 27014G23KT 20SM -SHSN BKN055 04/M08 A3008 RMK SC5 CVCTV CLDS
                 EMBD VIS LWR N-E SLP192 =
2018-10-18 17:00 METAR CYQB 181700Z 28014G24KT 260V320 20SM -SHSN BKN045 03/M08 A3007 RMK SC5
                 CVCTV CLDS EMBD VIS LWR N-E QUAD SLP189 =
2018-10-18 16:54 METAR CYQB 181654Z 29011G25KT 20SM -SHSN BKN045 03/M07 A3008 RMK SC5 VIS LWR
                 N-NE OVR MTS SLP191 =
2018-10-18 16:00 METAR CYQB 181600Z 28010G26KT 250V310 20SM VCSH BKN045 03/M06 A3008 RMK SC6 VIS
                 LWR N- NE OVR MTS SLP192 =
2018-10-18 15:44 METAR CYQB 181544Z 28015G23KT 20SM VCSH BKN046 02/M07 A3008 RMK SC5 SLP192 =
2018-10-18 15:00 METAR CYQB 181500Z 28013G20KT 250V320 20SM -SHSN BKN042 03/M06 A3007 RMK SC5
                 CVCTV CLDS EMBD PCPN VRY LGT SLP189 =
2018-10-18 14:46 METAR CYQB 181446Z 29011G20KT 260V340 20SM -SHSN BKN045 02/M07 A3007 RMK SC5
                 CVCTV CLDS EMBD SLP189 =
2018-10-18 14:00 METAR CYQB 181400Z 30010G19KT 250V330 30SM SCT045 02/M07 A3007 RMK SC4 SLP187 =
2018-10-18 13:00 METAR CYQB 181300Z 28011G21KT 250V320 20SM VCSH SCT033 01/M06 A3006 RMK SC3 VIS
                 LWR N-NE OVR MTS SLP183 =
2018-10-18 12:00 METAR CYQB 181200Z 28008G16KT 250V320 20SM VCSH SCT035 SCT220 M00/M07 A3003 RMK
                 SC3CI1 VIS LWR NE OVR MTS SLP173 =
2018-10-18 11:19 METAR CYQB 181119Z 29007G16KT 270V330 20SM VCSH FEW035 FEW140 M01/M06 A3000 RMK
                 SC1AC1 SLP165 =

Support USWX by starting your Amazon purchase here.